sensor_id;sensor_type;location;lat;lon;timestamp;pressure;altitude;pressure_sealevel;temperature
45393;BMP280;31129;44.810;10.334;2023-02-26T00:01:26;98781.59;;;13.31
45393;BMP280;31129;44.810;10.334;2023-02-26T00:03:53;98774.75;;;13.25
45393;BMP280;31129;44.810;10.334;2023-02-26T00:06:19;98772.03;;;13.25
45393;BMP280;31129;44.810;10.334;2023-02-26T00:08:45;98771.16;;;13.30
45393;BMP280;31129;44.810;10.334;2023-02-26T00:11:11;98772.03;;;13.25
45393;BMP280;31129;44.810;10.334;2023-02-26T00:13:39;98776.44;;;13.28
45393;BMP280;31129;44.810;10.334;2023-02-26T00:16:12;98764.34;;;13.23
45393;BMP280;31129;44.810;10.334;2023-02-26T00:18:39;98763.06;;;13.24
45393;BMP280;31129;44.810;10.334;2023-02-26T00:21:05;98767.72;;;13.16
45393;BMP280;31129;44.810;10.334;2023-02-26T00:23:31;98765.31;;;13.12
45393;BMP280;31129;44.810;10.334;2023-02-26T00:25:59;98764.16;;;13.21
45393;BMP280;31129;44.810;10.334;2023-02-26T00:28:25;98767.22;;;13.17
45393;BMP280;31129;44.810;10.334;2023-02-26T00:30:51;98761.06;;;13.25
45393;BMP280;31129;44.810;10.334;2023-02-26T00:33:16;98762.16;;;13.22
45393;BMP280;31129;44.810;10.334;2023-02-26T00:35:42;98766.34;;;13.23
45393;BMP280;31129;44.810;10.334;2023-02-26T00:38:10;98763.06;;;13.24
45393;BMP280;31129;44.810;10.334;2023-02-26T00:40:43;98762.25;;;13.16
45393;BMP280;31129;44.810;10.334;2023-02-26T00:43:21;98767.06;;;13.23
45393;BMP280;31129;44.810;10.334;2023-02-26T00:51:51;98758.47;;;13.19
45393;BMP280;31129;44.810;10.334;2023-02-26T00:54:22;98759.41;;;13.22
45393;BMP280;31129;44.810;10.334;2023-02-26T00:56:50;98760.84;;;13.23
45393;BMP280;31129;44.810;10.334;2023-02-26T00:59:17;98763.41;;;13.21
45393;BMP280;31129;44.810;10.334;2023-02-26T01:01:43;98757.19;;;13.20
45393;BMP280;31129;44.810;10.334;2023-02-26T01:04:10;98760.56;;;13.13
45393;BMP280;31129;44.810;10.334;2023-02-26T01:06:41;98768.06;;;13.12
45393;BMP280;31129;44.810;10.334;2023-02-26T01:09:34;98760.84;;;13.02
45393;BMP280;31129;44.810;10.334;2023-02-26T01:12:09;98756.50;;;13.06
45393;BMP280;31129;44.810;10.334;2023-02-26T01:14:37;98754.28;;;13.05
45393;BMP280;31129;44.810;10.334;2023-02-26T01:20:21;98750.50;;;13.08
45393;BMP280;31129;44.810;10.334;2023-02-26T01:22:53;98741.19;;;13.11
45393;BMP280;31129;44.810;10.334;2023-02-26T01:25:26;98739.72;;;13.10
45393;BMP280;31129;44.810;10.334;2023-02-26T01:27:52;98727.13;;;13.07
45393;BMP280;31129;44.810;10.334;2023-02-26T01:30:18;98726.38;;;13.06
45393;BMP280;31129;44.810;10.334;2023-02-26T01:32:56;98725.84;;;13.08
45393;BMP280;31129;44.810;10.334;2023-02-26T01:43:33;98712.91;;;13.08
45393;BMP280;31129;44.810;10.334;2023-02-26T01:46:30;98713.44;;;13.07
45393;BMP280;31129;44.810;10.334;2023-02-26T01:48:58;98706.13;;;13.09
45393;BMP280;31129;44.810;10.334;2023-02-26T01:52:00;98701.00;;;13.06
45393;BMP280;31129;44.810;10.334;2023-02-26T01:54:37;98707.84;;;12.99
45393;BMP280;31129;44.810;10.334;2023-02-26T01:57:08;98701.53;;;13.04
45393;BMP280;31129;44.810;10.334;2023-02-26T01:59:44;98694.16;;;12.99
45393;BMP280;31129;44.810;10.334;2023-02-26T02:02:11;98694.69;;;12.98
45393;BMP280;31129;44.810;10.334;2023-02-26T02:04:39;98696.19;;;12.99
45393;BMP280;31129;44.810;10.334;2023-02-26T02:07:05;98695.44;;;12.98
45393;BMP280;31129;44.810;10.334;2023-02-26T02:09:31;98694.28;;;13.07
45393;BMP280;31129;44.810;10.334;2023-02-26T02:12:34;98690.81;;;13.06
45393;BMP280;31129;44.810;10.334;2023-02-26T02:15:16;98691.00;;;13.08
45393;BMP280;31129;44.810;10.334;2023-02-26T02:18:10;98689.38;;;13.13
45393;BMP280;31129;44.810;10.334;2023-02-26T02:23:25;98693.75;;;13.08
45393;BMP280;31129;44.810;10.334;2023-02-26T02:31:49;98690.50;;;12.97
45393;BMP280;31129;44.810;10.334;2023-02-26T02:37:00;98695.75;;;13.08
45393;BMP280;31129;44.810;10.334;2023-02-26T02:39:32;98699.16;;;13.01
45393;BMP280;31129;44.810;10.334;2023-02-26T02:44:51;98695.44;;;12.98
45393;BMP280;31129;44.810;10.334;2023-02-26T02:47:19;98686.41;;;12.90
45393;BMP280;31129;44.810;10.334;2023-02-26T02:50:02;98690.84;;;12.93
45393;BMP280;31129;44.810;10.334;2023-02-26T02:52:37;98693.66;;;13.01
45393;BMP280;31129;44.810;10.334;2023-02-26T02:55:09;98697.75;;;13.07
45393;BMP280;31129;44.810;10.334;2023-02-26T02:57:39;98692.69;;;12.98
45393;BMP280;31129;44.810;10.334;2023-02-26T03:00:09;98691.56;;;12.94
45393;BMP280;31129;44.810;10.334;2023-02-26T03:05:00;98685.69;;;12.90
45393;BMP280;31129;44.810;10.334;2023-02-26T03:07:30;98687.59;;;12.81
45393;BMP280;31129;44.810;10.334;2023-02-26T03:09:57;98681.81;;;12.85
45393;BMP280;31129;44.810;10.334;2023-02-26T03:12:25;98686.31;;;12.82
45393;BMP280;31129;44.810;10.334;2023-02-26T03:14:51;98694.25;;;12.86
45393;BMP280;31129;44.810;10.334;2023-02-26T03:17:32;98703.22;;;13.07
45393;BMP280;31129;44.810;10.334;2023-02-26T03:23:04;98702.72;;;12.82
45393;BMP280;31129;44.810;10.334;2023-02-26T03:36:21;98723.66;;;12.20
45393;BMP280;31129;44.810;10.334;2023-02-26T03:41:48;98727.19;;;12.01
45393;BMP280;31129;44.810;10.334;2023-02-26T03:44:50;98726.16;;;12.04
45393;BMP280;31129;44.810;10.334;2023-02-26T03:47:18;98740.31;;;11.90
45393;BMP280;31129;44.810;10.334;2023-02-26T03:49:48;98739.00;;;11.78
45393;BMP280;31129;44.810;10.334;2023-02-26T03:52:16;98750.53;;;11.70
45393;BMP280;31129;44.810;10.334;2023-02-26T03:55:07;98757.38;;;11.77
45393;BMP280;31129;44.810;10.334;2023-02-26T03:57:54;98777.56;;;11.23
45393;BMP280;31129;44.810;10.334;2023-02-26T04:00:41;98822.03;;;10.75
45393;BMP280;31129;44.810;10.334;2023-02-26T04:03:14;98829.88;;;10.54
45393;BMP280;31129;44.810;10.334;2023-02-26T04:05:46;98846.25;;;10.24
45393;BMP280;31129;44.810;10.334;2023-02-26T04:08:12;98866.03;;;9.95
45393;BMP280;31129;44.810;10.334;2023-02-26T04:10:58;98883.16;;;9.79
45393;BMP280;31129;44.810;10.334;2023-02-26T04:13:24;98870.34;;;9.74
45393;BMP280;31129;44.810;10.334;2023-02-26T04:15:51;98872.94;;;9.49
45393;BMP280;31129;44.810;10.334;2023-02-26T04:18:16;98873.72;;;9.33
45393;BMP280;31129;44.810;10.334;2023-02-26T04:20:42;98871.53;;;9.26
45393;BMP280;31129;44.810;10.334;2023-02-26T04:23:08;98870.34;;;9.05
45393;BMP280;31129;44.810;10.334;2023-02-26T04:25:34;98864.19;;;8.93
45393;BMP280;31129;44.810;10.334;2023-02-26T04:28:00;98868.88;;;8.98
45393;BMP280;31129;44.810;10.334;2023-02-26T04:30:26;98868.66;;;8.79
45393;BMP280;31129;44.810;10.334;2023-02-26T04:32:51;98871.88;;;8.78
45393;BMP280;31129;44.810;10.334;2023-02-26T04:35:17;98888.41;;;8.85
45393;BMP280;31129;44.810;10.334;2023-02-26T04:37:43;98875.09;;;8.65
45393;BMP280;31129;44.810;10.334;2023-02-26T04:40:10;98884.97;;;8.74
45393;BMP280;31129;44.810;10.334;2023-02-26T04:42:35;98874.13;;;8.57
45393;BMP280;31129;44.810;10.334;2023-02-26T04:45:01;98881.00;;;8.41
45393;BMP280;31129;44.810;10.334;2023-02-26T04:47:27;98897.28;;;8.24
45393;BMP280;31129;44.810;10.334;2023-02-26T04:49:53;98910.41;;;8.37
45393;BMP280;31129;44.810;10.334;2023-02-26T04:52:18;98928.91;;;8.27
45393;BMP280;31129;44.810;10.334;2023-02-26T04:54:43;98943.19;;;8.22
45393;BMP280;31129;44.810;10.334;2023-02-26T04:57:12;98939.25;;;8.23
45393;BMP280;31129;44.810;10.334;2023-02-26T04:59:37;98948.13;;;8.13
45393;BMP280;31129;44.810;10.334;2023-02-26T05:02:04;98945.69;;;8.20
45393;BMP280;31129;44.810;10.334;2023-02-26T05:04:30;98947.19;;;8.27
45393;BMP280;31129;44.810;10.334;2023-02-26T05:06:58;98944.66;;;8.12
45393;BMP280;31129;44.810;10.334;2023-02-26T05:09:24;98951.84;;;8.21
45393;BMP280;31129;44.810;10.334;2023-02-26T05:11:49;98953.53;;;8.07
45393;BMP280;31129;44.810;10.334;2023-02-26T05:14:15;98959.75;;;8.24
45393;BMP280;31129;44.810;10.334;2023-02-26T05:16:41;98962.69;;;8.10
45393;BMP280;31129;44.810;10.334;2023-02-26T05:19:06;98981.41;;;8.02
45393;BMP280;31129;44.810;10.334;2023-02-26T05:21:32;98980.44;;;8.11
45393;BMP280;31129;44.810;10.334;2023-02-26T05:23:57;98972.75;;;8.04
45393;BMP280;31129;44.810;10.334;2023-02-26T05:26:23;98990.00;;;7.89
45393;BMP280;31129;44.810;10.334;2023-02-26T05:28:50;98991.28;;;8.05
45393;BMP280;31129;44.810;10.334;2023-02-26T05:31:18;99008.25;;;7.94
45393;BMP280;31129;44.810;10.334;2023-02-26T05:33:44;99007.88;;;8.13
45393;BMP280;31129;44.810;10.334;2023-02-26T05:36:10;99011.47;;;7.87
45393;BMP280;31129;44.810;10.334;2023-02-26T05:38:35;99014.25;;;7.99
45393;BMP280;31129;44.810;10.334;2023-02-26T05:41:02;99011.47;;;7.93
45393;BMP280;31129;44.810;10.334;2023-02-26T05:43:28;99016.69;;;7.97
45393;BMP280;31129;44.810;10.334;2023-02-26T05:45:54;99028.22;;;7.91
45393;BMP280;31129;44.810;10.334;2023-02-26T05:48:22;99033.41;;;7.84
45393;BMP280;31129;44.810;10.334;2023-02-26T05:50:49;99035.91;;;7.93
45393;BMP280;31129;44.810;10.334;2023-02-26T05:53:15;99037.78;;;7.76
45393;BMP280;31129;44.810;10.334;2023-02-26T05:55:40;99049.34;;;7.65
45393;BMP280;31129;44.810;10.334;2023-02-26T05:58:05;99050.84;;;7.72
45393;BMP280;31129;44.810;10.334;2023-02-26T06:00:31;99061.75;;;7.83
45393;BMP280;31129;44.810;10.334;2023-02-26T06:02:56;99065.47;;;7.85
45393;BMP280;31129;44.810;10.334;2023-02-26T06:05:22;99077.03;;;7.80
45393;BMP280;31129;44.810;10.334;2023-02-26T06:07:47;99084.28;;;7.94
45393;BMP280;31129;44.810;10.334;2023-02-26T06:10:12;99079.22;;;7.76
45393;BMP280;31129;44.810;10.334;2023-02-26T06:12:38;99091.78;;;7.74
45393;BMP280;31129;44.810;10.334;2023-02-26T06:15:05;99099.66;;;7.66
45393;BMP280;31129;44.810;10.334;2023-02-26T06:17:32;99109.78;;;7.66
45393;BMP280;31129;44.810;10.334;2023-02-26T06:19:57;99125.47;;;7.56
45393;BMP280;31129;44.810;10.334;2023-02-26T06:22:23;99140.00;;;7.53
45393;BMP280;31129;44.810;10.334;2023-02-26T06:24:48;99145.59;;;7.44
45393;BMP280;31129;44.810;10.334;2023-02-26T06:27:14;99147.66;;;7.34
45393;BMP280;31129;44.810;10.334;2023-02-26T06:29:39;99165.66;;;7.32
45393;BMP280;31129;44.810;10.334;2023-02-26T06:32:05;99149.94;;;7.36
45393;BMP280;31129;44.810;10.334;2023-02-26T06:34:31;99153.25;;;7.19
45393;BMP280;31129;44.810;10.334;2023-02-26T06:36:57;99157.75;;;7.28
45393;BMP280;31129;44.810;10.334;2023-02-26T06:39:22;99151.25;;;7.00
45393;BMP280;31129;44.810;10.334;2023-02-26T06:41:47;99158.00;;;7.04
45393;BMP280;31129;44.810;10.334;2023-02-26T06:44:13;99153.63;;;7.12
45393;BMP280;31129;44.810;10.334;2023-02-26T06:46:39;99171.84;;;7.12
45393;BMP280;31129;44.810;10.334;2023-02-26T06:49:04;99177.34;;;6.97
45393;BMP280;31129;44.810;10.334;2023-02-26T06:51:30;99181.28;;;7.16
45393;BMP280;31129;44.810;10.334;2023-02-26T06:53:56;99185.47;;;6.97
45393;BMP280;31129;44.810;10.334;2023-02-26T06:56:22;99181.22;;;7.11
45393;BMP280;31129;44.810;10.334;2023-02-26T06:58:48;99178.63;;;7.02
45393;BMP280;31129;44.810;10.334;2023-02-26T07:01:13;99189.69;;;6.98
45393;BMP280;31129;44.810;10.334;2023-02-26T07:03:39;99196.69;;;7.05
45393;BMP280;31129;44.810;10.334;2023-02-26T07:06:05;99196.50;;;7.08
45393;BMP280;31129;44.810;10.334;2023-02-26T07:08:33;99199.53;;;6.96
45393;BMP280;31129;44.810;10.334;2023-02-26T07:10:58;99223.19;;;6.95
45393;BMP280;31129;44.810;10.334;2023-02-26T07:13:24;99227.72;;;7.04
45393;BMP280;31129;44.810;10.334;2023-02-26T07:15:49;99235.44;;;6.90
45393;BMP280;31129;44.810;10.334;2023-02-26T07:18:15;99231.47;;;7.06
45393;BMP280;31129;44.810;10.334;2023-02-26T07:20:41;99237.69;;;6.92
45393;BMP280;31129;44.810;10.334;2023-02-26T07:23:07;99221.25;;;7.01
45393;BMP280;31129;44.810;10.334;2023-02-26T07:25:32;99242.16;;;6.95
45393;BMP280;31129;44.810;10.334;2023-02-26T07:27:58;99243.66;;;6.96
45393;BMP280;31129;44.810;10.334;2023-02-26T07:30:24;99252.91;;;7.10
45393;BMP280;31129;44.810;10.334;2023-02-26T07:32:56;99253.66;;;7.10
45393;BMP280;31129;44.810;10.334;2023-02-26T07:35:22;99265.75;;;7.09
45393;BMP280;31129;44.810;10.334;2023-02-26T07:37:48;99273.94;;;7.15
45393;BMP280;31129;44.810;10.334;2023-02-26T07:40:14;99268.03;;;7.16
45393;BMP280;31129;44.810;10.334;2023-02-26T07:42:39;99269.47;;;6.91
45393;BMP280;31129;44.810;10.334;2023-02-26T07:45:06;99265.38;;;7.02
45393;BMP280;31129;44.810;10.334;2023-02-26T07:47:32;99277.88;;;6.93
45393;BMP280;31129;44.810;10.334;2023-02-26T07:49:58;99276.50;;;7.04
45393;BMP280;31129;44.810;10.334;2023-02-26T07:52:24;99289.47;;;7.14
45393;BMP280;31129;44.810;10.334;2023-02-26T07:54:50;99295.63;;;6.95
45393;BMP280;31129;44.810;10.334;2023-02-26T07:57:15;99300.31;;;6.94
45393;BMP280;31129;44.810;10.334;2023-02-26T07:59:41;99293.34;;;7.08
45393;BMP280;31129;44.810;10.334;2023-02-26T08:02:10;99308.44;;;6.94
45393;BMP280;31129;44.810;10.334;2023-02-26T08:04:35;99302.13;;;7.03
45393;BMP280;31129;44.810;10.334;2023-02-26T08:07:01;99309.66;;;7.13
45393;BMP280;31129;44.810;10.334;2023-02-26T08:09:27;99314.06;;;7.11
45393;BMP280;31129;44.810;10.334;2023-02-26T08:11:52;99301.25;;;7.11
45393;BMP280;31129;44.810;10.334;2023-02-26T08:14:18;99292.88;;;7.09
45393;BMP280;31129;44.810;10.334;2023-02-26T08:16:43;99310.91;;;6.98
45393;BMP280;31129;44.810;10.334;2023-02-26T08:19:09;99333.16;;;7.02
45393;BMP280;31129;44.810;10.334;2023-02-26T08:21:35;99320.28;;;6.97
45393;BMP280;31129;44.810;10.334;2023-02-26T08:24:00;99314.63;;;7.15
45393;BMP280;31129;44.810;10.334;2023-02-26T08:26:27;99301.53;;;7.13
45393;BMP280;31129;44.810;10.334;2023-02-26T08:28:53;99312.09;;;7.11
45393;BMP280;31129;44.810;10.334;2023-02-26T08:31:18;99330.34;;;7.11
45393;BMP280;31129;44.810;10.334;2023-02-26T08:33:44;99320.78;;;6.95
45393;BMP280;31129;44.810;10.334;2023-02-26T08:36:09;99334.56;;;6.97
45393;BMP280;31129;44.810;10.334;2023-02-26T08:38:35;99328.47;;;7.02
45393;BMP280;31129;44.810;10.334;2023-02-26T08:41:01;99345.34;;;7.06
45393;BMP280;31129;44.810;10.334;2023-02-26T08:43:26;99355.00;;;7.13
45393;BMP280;31129;44.810;10.334;2023-02-26T08:45:53;99361.88;;;7.29
45393;BMP280;31129;44.810;10.334;2023-02-26T08:48:19;99366.78;;;7.10
45393;BMP280;31129;44.810;10.334;2023-02-26T08:50:45;99364.38;;;7.12
45393;BMP280;31129;44.810;10.334;2023-02-26T08:53:10;99356.38;;;7.23
45393;BMP280;31129;44.810;10.334;2023-02-26T08:55:36;99385.97;;;7.21
45393;BMP280;31129;44.810;10.334;2023-02-26T08:58:01;99376.69;;;7.13
45393;BMP280;31129;44.810;10.334;2023-02-26T09:00:27;99369.13;;;7.17
45393;BMP280;31129;44.810;10.334;2023-02-26T09:02:53;99373.13;;;7.21
45393;BMP280;31129;44.810;10.334;2023-02-26T09:05:19;99373.28;;;7.33
45393;BMP280;31129;44.810;10.334;2023-02-26T09:07:45;99372.00;;;7.28
45393;BMP280;31129;44.810;10.334;2023-02-26T09:10:11;99358.22;;;7.32
45393;BMP280;31129;44.810;10.334;2023-02-26T09:12:37;99362.16;;;7.31
45393;BMP280;31129;44.810;10.334;2023-02-26T09:15:08;99372.34;;;7.36
45393;BMP280;31129;44.810;10.334;2023-02-26T09:17:34;99374.72;;;7.28
45393;BMP280;31129;44.810;10.334;2023-02-26T09:20:00;99365.94;;;7.18
45393;BMP280;31129;44.810;10.334;2023-02-26T09:22:25;99383.13;;;7.30
45393;BMP280;31129;44.810;10.334;2023-02-26T09:24:51;99378.16;;;7.29
45393;BMP280;31129;44.810;10.334;2023-02-26T09:27:17;99388.91;;;7.38
45393;BMP280;31129;44.810;10.334;2023-02-26T09:29:42;99379.53;;;7.39
45393;BMP280;31129;44.810;10.334;2023-02-26T09:32:11;99387.22;;;7.40
45393;BMP280;31129;44.810;10.334;2023-02-26T09:34:37;99388.91;;;7.38
45393;BMP280;31129;44.810;10.334;2023-02-26T09:37:04;99393.59;;;7.57
45393;BMP280;31129;44.810;10.334;2023-02-26T09:39:30;99384.78;;;7.42
45393;BMP280;31129;44.810;10.334;2023-02-26T09:41:58;99397.47;;;7.51
45393;BMP280;31129;44.810;10.334;2023-02-26T09:44:28;99390.06;;;7.51
45393;BMP280;31129;44.810;10.334;2023-02-26T09:55:35;99406.00;;;7.64
45393;BMP280;31129;44.810;10.334;2023-02-26T09:58:15;99417.16;;;7.66
45393;BMP280;31129;44.810;10.334;2023-02-26T10:08:47;99431.84;;;7.59
45393;BMP280;31129;44.810;10.334;2023-02-26T10:11:39;99430.16;;;7.62
45393;BMP280;31129;44.810;10.334;2023-02-26T10:16:41;99428.22;;;7.48
45393;BMP280;31129;44.810;10.334;2023-02-26T10:19:19;99427.44;;;7.42
45393;BMP280;31129;44.810;10.334;2023-02-26T10:21:55;99431.84;;;7.24
45393;BMP280;31129;44.810;10.334;2023-02-26T10:24:25;99432.84;;;7.07
45393;BMP280;31129;44.810;10.334;2023-02-26T10:26:57;99437.66;;;7.17
45393;BMP280;31129;44.810;10.334;2023-02-26T10:35:03;99438.03;;;7.25
45393;BMP280;31129;44.810;10.334;2023-02-26T10:37:57;99437.84;;;7.14
45393;BMP280;31129;44.810;10.334;2023-02-26T10:40:27;99449.16;;;6.98
45393;BMP280;31129;44.810;10.334;2023-02-26T10:43:03;99443.63;;;7.21
45393;BMP280;31129;44.810;10.334;2023-02-26T10:48:26;99428.69;;;7.11
45393;BMP280;31129;44.810;10.334;2023-02-26T10:50:56;99444.84;;;7.35
45393;BMP280;31129;44.810;10.334;2023-02-26T10:53:23;99432.41;;;7.29
45393;BMP280;31129;44.810;10.334;2023-02-26T10:55:55;99432.16;;;7.47
45393;BMP280;31129;44.810;10.334;2023-02-26T10:58:24;99434.34;;;7.43
45393;BMP280;31129;44.810;10.334;2023-02-26T11:00:53;99424.41;;;7.54
45393;BMP280;31129;44.810;10.334;2023-02-26T11:03:31;99443.56;;;7.66
45393;BMP280;31129;44.810;10.334;2023-02-26T11:05:58;99445.06;;;7.67
45393;BMP280;31129;44.810;10.334;2023-02-26T11:08:41;99444.31;;;7.66
45393;BMP280;31129;44.810;10.334;2023-02-26T11:11:07;99441.59;;;7.86
45393;BMP280;31129;44.810;10.334;2023-02-26T11:13:35;99436.94;;;7.92
45393;BMP280;31129;44.810;10.334;2023-02-26T11:16:13;99447.28;;;7.88
45393;BMP280;31129;44.810;10.334;2023-02-26T11:18:51;99452.97;;;7.90
45393;BMP280;31129;44.810;10.334;2023-02-26T11:21:24;99441.63;;;7.72
45393;BMP280;31129;44.810;10.334;2023-02-26T11:23:58;99442.59;;;7.69
45393;BMP280;31129;44.810;10.334;2023-02-26T11:26:30;99440.41;;;7.73
45393;BMP280;31129;44.810;10.334;2023-02-26T11:28:57;99412.25;;;7.70
45393;BMP280;31129;44.810;10.334;2023-02-26T11:31:23;99431.94;;;7.65
45393;BMP280;31129;44.810;10.334;2023-02-26T11:33:52;99435.75;;;7.73
45393;BMP280;31129;44.810;10.334;2023-02-26T11:36:23;99448.38;;;7.76
45393;BMP280;31129;44.810;10.334;2023-02-26T11:38:53;99430.91;;;7.63
45393;BMP280;31129;44.810;10.334;2023-02-26T11:41:19;99437.91;;;7.69
45393;BMP280;31129;44.810;10.334;2023-02-26T11:43:58;99439.03;;;7.63
45393;BMP280;31129;44.810;10.334;2023-02-26T11:46:25;99456.97;;;7.75
45393;BMP280;31129;44.810;10.334;2023-02-26T11:48:53;99441.00;;;7.62
45393;BMP280;31129;44.810;10.334;2023-02-26T11:51:22;99459.97;;;7.77
45393;BMP280;31129;44.810;10.334;2023-02-26T11:53:54;99452.97;;;7.70
45393;BMP280;31129;44.810;10.334;2023-02-26T11:56:36;99459.19;;;7.56
45393;BMP280;31129;44.810;10.334;2023-02-26T11:59:18;99457.16;;;7.51
45393;BMP280;31129;44.810;10.334;2023-02-26T12:01:44;99447.06;;;7.37
45393;BMP280;31129;44.810;10.334;2023-02-26T12:04:11;99456.16;;;7.19
45393;BMP280;31129;44.810;10.334;2023-02-26T12:06:37;99456.72;;;7.23
45393;BMP280;31129;44.810;10.334;2023-02-26T12:09:08;99466.06;;;7.37
45393;BMP280;31129;44.810;10.334;2023-02-26T12:14:43;99463.22;;;7.46
45393;BMP280;31129;44.810;10.334;2023-02-26T12:17:39;99457.59;;;7.49
45393;BMP280;31129;44.810;10.334;2023-02-26T12:22:49;99464.84;;;7.38
45393;BMP280;31129;44.810;10.334;2023-02-26T12:28:26;99461.25;;;7.46
45393;BMP280;31129;44.810;10.334;2023-02-26T12:34:11;99461.66;;;7.74
45393;BMP280;31129;44.810;10.334;2023-02-26T12:36:50;99477.69;;;7.92
45393;BMP280;31129;44.810;10.334;2023-02-26T12:43:15;99485.06;;;7.92
45393;BMP280;31129;44.810;10.334;2023-02-26T12:45:41;99485.81;;;7.92
45393;BMP280;31129;44.810;10.334;2023-02-26T12:48:16;99478.41;;;7.93
45393;BMP280;31129;44.810;10.334;2023-02-26T12:53:40;99470.44;;;8.04
45393;BMP280;31129;44.810;10.334;2023-02-26T13:12:47;99486.84;;;7.75
45393;BMP280;31129;44.810;10.334;2023-02-26T13:18:17;99484.53;;;7.68
45393;BMP280;31129;44.810;10.334;2023-02-26T13:20:57;99488.72;;;7.69
45393;BMP280;31129;44.810;10.334;2023-02-26T13:23:30;99479.16;;;7.73
45393;BMP280;31129;44.810;10.334;2023-02-26T13:26:03;99496.00;;;7.77
45393;BMP280;31129;44.810;10.334;2023-02-26T13:30:57;99489.91;;;7.82
45393;BMP280;31129;44.810;10.334;2023-02-26T13:33:28;99506.41;;;7.64
45393;BMP280;31129;44.810;10.334;2023-02-26T13:35:55;99505.22;;;7.65
45393;BMP280;31129;44.810;10.334;2023-02-26T13:41:26;99509.44;;;7.66
45393;BMP280;31129;44.810;10.334;2023-02-26T13:44:12;99522.75;;;7.84
45393;BMP280;31129;44.810;10.334;2023-02-26T13:47:11;99535.59;;;7.69
45393;BMP280;31129;44.810;10.334;2023-02-26T13:52:51;99529.28;;;7.43
45393;BMP280;31129;44.810;10.334;2023-02-26T13:55:37;99555.13;;;7.53
45393;BMP280;31129;44.810;10.334;2023-02-26T14:03:43;99564.28;;;7.55
45393;BMP280;31129;44.810;10.334;2023-02-26T14:06:43;99560.34;;;7.42
45393;BMP280;31129;44.810;10.334;2023-02-26T14:11:59;99575.22;;;7.32
45393;BMP280;31129;44.810;10.334;2023-02-26T14:14:38;99580.16;;;7.48
45393;BMP280;31129;44.810;10.334;2023-02-26T14:22:21;99586.41;;;7.10
45393;BMP280;31129;44.810;10.334;2023-02-26T14:24:56;99592.91;;;7.27
45393;BMP280;31129;44.810;10.334;2023-02-26T14:27:31;99586.25;;;7.28
45393;BMP280;31129;44.810;10.334;2023-02-26T14:35:26;99603.72;;;7.12
45393;BMP280;31129;44.810;10.334;2023-02-26T14:38:08;99594.84;;;7.26
45393;BMP280;31129;44.810;10.334;2023-02-26T14:40:45;99597.00;;;7.08
45393;BMP280;31129;44.810;10.334;2023-02-26T14:43:35;99601.47;;;7.11
45393;BMP280;31129;44.810;10.334;2023-02-26T14:46:02;99613.81;;;7.12
45393;BMP280;31129;44.810;10.334;2023-02-26T14:48:28;99606.97;;;7.02
45393;BMP280;31129;44.810;10.334;2023-02-26T14:56:38;99625.44;;;7.27
45393;BMP280;31129;44.810;10.334;2023-02-26T15:01:47;99639.38;;;7.49
45393;BMP280;31129;44.810;10.334;2023-02-26T15:04:19;99636.88;;;7.31
45393;BMP280;31129;44.810;10.334;2023-02-26T15:19:00;99673.88;;;7.34
45393;BMP280;31129;44.810;10.334;2023-02-26T15:24:21;99676.28;;;7.17
45393;BMP280;31129;44.810;10.334;2023-02-26T15:26:53;99679.97;;;7.29
45393;BMP280;31129;44.810;10.334;2023-02-26T15:29:33;99680.81;;;7.20
45393;BMP280;31129;44.810;10.334;2023-02-26T15:32:15;99686.78;;;7.24
45393;BMP280;31129;44.810;10.334;2023-02-26T15:34:45;99698.28;;;7.34
45393;BMP280;31129;44.810;10.334;2023-02-26T15:37:21;99703.00;;;7.10
45393;BMP280;31129;44.810;10.334;2023-02-26T15:39:50;99705.38;;;7.17
45393;BMP280;31129;44.810;10.334;2023-02-26T15:42:17;99714.34;;;7.08
45393;BMP280;31129;44.810;10.334;2023-02-26T15:44:44;99715.69;;;7.04
45393;BMP280;31129;44.810;10.334;2023-02-26T15:47:11;99725.75;;;7.12
45393;BMP280;31129;44.810;10.334;2023-02-26T15:49:42;99721.66;;;6.93
45393;BMP280;31129;44.810;10.334;2023-02-26T15:52:23;99725.81;;;7.03
45393;BMP280;31129;44.810;10.334;2023-02-26T15:55:01;99733.34;;;6.99
45393;BMP280;31129;44.810;10.334;2023-02-26T15:57:28;99740.34;;;6.91
45393;BMP280;31129;44.810;10.334;2023-02-26T16:00:01;99741.19;;;7.06
45393;BMP280;31129;44.810;10.334;2023-02-26T16:02:39;99745.53;;;7.04
45393;BMP280;31129;44.810;10.334;2023-02-26T16:05:05;99747.50;;;7.03
45393;BMP280;31129;44.810;10.334;2023-02-26T16:07:30;99747.06;;;7.05
45393;BMP280;31129;44.810;10.334;2023-02-26T16:09:56;99740.94;;;6.95
45393;BMP280;31129;44.810;10.334;2023-02-26T16:12:34;99761.97;;;7.00
45393;BMP280;31129;44.810;10.334;2023-02-26T16:15:04;99755.25;;;6.96
45393;BMP280;31129;44.810;10.334;2023-02-26T16:17:36;99758.41;;;6.94
45393;BMP280;31129;44.810;10.334;2023-02-26T16:20:10;99759.47;;;6.87
45393;BMP280;31129;44.810;10.334;2023-02-26T16:22:46;99777.88;;;6.83
45393;BMP280;31129;44.810;10.334;2023-02-26T16:25:27;99756.66;;;6.82
45393;BMP280;31129;44.810;10.334;2023-02-26T16:28:03;99773.69;;;6.82
45393;BMP280;31129;44.810;10.334;2023-02-26T16:30:33;99791.69;;;6.85
45393;BMP280;31129;44.810;10.334;2023-02-26T16:33:01;99783.56;;;6.85
45393;BMP280;31129;44.810;10.334;2023-02-26T16:35:32;99806.75;;;6.96
45393;BMP280;31129;44.810;10.334;2023-02-26T16:38:09;99792.75;;;6.88
45393;BMP280;31129;44.810;10.334;2023-02-26T16:40:40;99794.28;;;6.89
45393;BMP280;31129;44.810;10.334;2023-02-26T16:43:30;99810.88;;;6.73
45393;BMP280;31129;44.810;10.334;2023-02-26T16:46:00;99809.38;;;6.72
45393;BMP280;31129;44.810;10.334;2023-02-26T16:48:29;99832.25;;;6.80
45393;BMP280;31129;44.810;10.334;2023-02-26T16:51:13;99829.66;;;6.95
45393;BMP280;31129;44.810;10.334;2023-02-26T16:53:47;99831.66;;;6.76
45393;BMP280;31129;44.810;10.334;2023-02-26T16:56:24;99838.44;;;6.71
45393;BMP280;31129;44.810;10.334;2023-02-26T16:59:05;99839.63;;;6.79
45393;BMP280;31129;44.810;10.334;2023-02-26T17:01:38;99839.75;;;6.85
45393;BMP280;31129;44.810;10.334;2023-02-26T17:04:04;99853.78;;;6.83
45393;BMP280;31129;44.810;10.334;2023-02-26T17:06:37;99850.94;;;6.78
45393;BMP280;31129;44.810;10.334;2023-02-26T17:09:05;99859.66;;;6.82
45393;BMP280;31129;44.810;10.334;2023-02-26T17:11:38;99857.50;;;6.86